Time;durP1;ratioP1;P1;durP2;ratioP2;P2;SDS_P1;SDS_P2;PMS_P1;PMS_P2;Temp;Humidity;BMP_temperature;BMP_pressure;BME280_temperature;BME280_humidity;BME280_pressure;Samples;Min_cycle;Max_cycle;Signal;HPM_P1;HPM_P2
2021/01/14 05:12:41;;;;;;;13.43;9.73;;;;;;;-1.36;79.66;97979.34;1776979;79;22517;-65
2021/01/14 05:15:10;;;;;;;19.62;11.55;;;;;;;-1.40;79.65;97976.03;1696905;82;21052;-64
2021/01/14 05:17:38;;;;;;;16.30;10.58;;;;;;;-1.35;79.72;97988.68;1749642;82;21371;-64
2021/01/14 05:20:07;;;;;;;15.25;10.93;;;;;;;-1.27;79.66;97979.20;1749548;80;21020;-64
2021/01/14 05:22:38;;;;;;;17.57;11.57;;;;;;;-1.20;79.53;97980.31;1749570;82;21209;-64
2021/01/14 05:25:10;;;;;;;15.80;10.88;;;;;;;-1.13;79.40;97980.62;1749598;81;21196;-64
2021/01/14 05:27:38;;;;;;;15.65;11.90;;;;;;;-1.07;79.22;97982.22;1749767;80;21052;-63
2021/01/14 05:30:11;;;;;;;14.60;9.73;;;;;;;-1.01;79.15;97978.72;1749686;82;22137;-64
2021/01/14 05:32:42;;;;;;;19.87;11.55;;;;;;;-0.95;78.88;97979.42;1749596;82;20942;-63
2021/01/14 05:35:32;;;;;;;15.63;10.38;;;;;;;-0.88;78.68;97992.92;1749594;82;20937;-64
2021/01/14 05:38:03;;;;;;;16.32;11.97;;;;;;;-0.82;78.64;97992.80;1611500;89;21118;-65
2021/01/14 05:40:31;;;;;;;14.70;10.75;;;;;;;-0.72;78.53;97993.02;1584565;89;21093;-64
2021/01/14 05:43:06;;;;;;;18.15;12.75;;;;;;;-0.63;78.16;97995.83;1610402;89;21454;-65
2021/01/14 05:45:34;;;;;;;15.55;12.47;;;;;;;-0.59;77.89;97989.77;1611028;89;21678;-64
2021/01/14 05:48:12;;;;;;;16.07;11.97;;;;;;;-0.61;77.61;97989.83;1611244;87;21205;-65
2021/01/14 05:50:45;;;;;;;17.15;11.80;;;;;;;-0.63;77.53;97990.29;1600484;89;21147;-64
2021/01/14 05:53:16;;;;;;;17.70;12.90;;;;;;;-0.64;77.50;97983.94;1600671;89;26897;-64
2021/01/14 05:55:46;;;;;;;19.45;12.78;;;;;;;-0.65;77.54;97994.58;1583554;90;22293;-64
2021/01/14 05:58:18;;;;;;;19.10;11.60;;;;;;;-0.61;77.56;97999.20;1600360;89;21208;-64
2021/01/14 06:00:48;;;;;;;16.60;11.63;;;;;;;-0.61;77.50;97996.20;1600589;89;21144;-65
2021/01/14 06:03:26;;;;;;;17.82;11.50;;;;;;;-0.57;77.60;98004.63;1583185;89;21615;-65
2021/01/14 06:05:55;;;;;;;17.92;13.10;;;;;;;-0.56;77.42;98000.77;1599670;89;21234;-66
2021/01/14 06:08:28;;;;;;;18.32;12.30;;;;;;;-0.54;77.55;97998.18;1599547;89;22767;-65
2021/01/14 06:10:55;;;;;;;17.50;11.12;;;;;;;-0.50;77.58;97994.70;1597390;89;21250;-66
2021/01/14 06:13:40;;;;;;;16.65;12.15;;;;;;;-0.48;77.62;97989.97;1571419;89;22236;-67
2021/01/14 06:16:08;;;;;;;20.72;12.95;;;;;;;-0.44;77.29;98001.80;1568272;91;21261;-66
2021/01/14 06:18:36;;;;;;;21.15;14.35;;;;;;;-0.48;77.11;97995.51;1570809;91;21104;-66
2021/01/14 06:21:05;;;;;;;35.50;19.92;;;;;;;-0.46;77.15;98000.16;1571040;91;21420;-66
2021/01/14 06:23:46;;;;;;;26.50;16.75;;;;;;;-0.44;77.09;98001.80;1570624;91;21110;-66
2021/01/14 06:26:27;;;;;;;24.60;16.85;;;;;;;-0.40;77.13;97999.56;1576156;88;21207;-66
2021/01/14 06:28:55;;;;;;;24.87;15.25;;;;;;;-0.36;76.98;98003.73;1596301;89;21210;-67
2021/01/14 06:31:26;;;;;;;27.52;15.53;;;;;;;-0.34;76.99;98004.98;1584924;90;21245;-66
2021/01/14 06:33:55;;;;;;;23.77;15.43;;;;;;;-0.27;76.91;98002.72;1579151;90;21480;-63
2021/01/14 06:36:33;;;;;;;23.77;14.80;;;;;;;-0.22;76.78;98003.91;1598600;89;21179;-68
2021/01/14 06:39:13;;;;;;;20.95;14.78;;;;;;;-0.16;76.64;98008.86;1601106;88;21571;-66
2021/01/14 06:41:45;;;;;;;22.02;14.68;;;;;;;-0.09;76.76;98011.25;1602664;89;21242;-66
2021/01/14 06:44:14;;;;;;;20.65;13.08;;;;;;;-0.04;76.28;98009.45;1599826;89;21270;-66
2021/01/14 06:46:42;;;;;;;17.00;12.30;;;;;;;-0.01;76.18;98002.98;1600255;89;21282;-66
2021/01/14 06:49:14;;;;;;;21.52;13.15;;;;;;;0.00;75.86;98002.55;1601701;88;21243;-65
2021/01/14 06:51:59;;;;;;;18.12;12.65;;;;;;;-0.01;75.82;98008.54;1603593;89;21568;-68
2021/01/14 06:54:28;;;;;;;20.50;13.75;;;;;;;-0.02;75.63;98008.98;1604837;89;21104;-68
2021/01/14 06:57:14;;;;;;;18.05;12.90;;;;;;;-0.01;75.66;98005.55;1625948;88;21191;-65
2021/01/14 06:59:44;;;;;;;17.23;13.60;;;;;;;0.02;75.73;98009.72;1604376;88;21408;-64
2021/01/14 07:02:29;;;;;;;18.40;12.45;;;;;;;0.09;75.58;98010.00;1590371;88;21212;-65
2021/01/14 07:05:05;;;;;;;24.67;18.42;;;;;;;0.16;75.22;98004.31;1598498;89;21603;-65
2021/01/14 07:07:49;;;;;;;23.87;16.30;;;;;;;0.21;75.12;98016.53;1602821;87;21217;-64
2021/01/14 07:10:16;;;;;;;29.02;16.73;;;;;;;0.28;75.12;98009.97;1604825;89;21200;-64
2021/01/14 07:12:45;;;;;;;25.10;18.92;;;;;;;0.38;74.77;98011.88;1605389;87;21581;-63
2021/01/14 07:15:16;;;;;;;25.45;18.70;;;;;;;0.44;74.41;98011.72;1604783;87;21676;-63
2021/01/14 07:17:47;;;;;;;19.20;15.03;;;;;;;0.43;74.15;98018.14;1604975;89;21196;-64
2021/01/14 07:20:16;;;;;;;19.80;12.80;;;;;;;0.43;74.00;98017.70;1605164;89;21180;-65
2021/01/14 07:22:47;;;;;;;19.17;13.65;;;;;;;0.39;73.73;98016.56;1604841;88;21193;-67
2021/01/14 07:25:16;;;;;;;18.07;13.20;;;;;;;0.37;73.85;98016.59;1597676;89;21408;-65
2021/01/14 07:27:44;;;;;;;18.52;13.35;;;;;;;0.40;73.62;98031.03;1578594;89;21171;-64
2021/01/14 07:30:18;;;;;;;20.08;15.03;;;;;;;0.36;73.49;98028.98;1578492;89;21227;-63
2021/01/14 07:33:04;;;;;;;26.57;17.37;;;;;;;0.31;73.52;98036.75;1578052;90;21247;-65
2021/01/14 07:35:45;;;;;;;29.15;17.77;;;;;;;0.27;73.51;98035.14;1598883;89;21155;-61
2021/01/14 07:38:14;;;;;;;19.20;12.80;;;;;;;0.25;73.52;98036.88;1592301;89;21226;-62
2021/01/14 07:40:45;;;;;;;18.10;12.30;;;;;;;0.20;73.46;98032.78;1596823;89;21255;-61
2021/01/14 07:43:14;;;;;;;18.10;12.37;;;;;;;0.18;73.44;98035.36;1596305;89;21218;-63
2021/01/14 07:45:45;;;;;;;20.90;12.93;;;;;;;0.15;73.56;98037.14;1581351;89;21235;-62
2021/01/14 07:48:23;;;;;;;18.67;12.95;;;;;;;0.16;73.70;98034.99;1578666;90;21196;-62
2021/01/14 07:50:56;;;;;;;16.42;11.53;;;;;;;0.22;73.87;98041.22;1585255;87;22438;-64
2021/01/14 07:53:25;;;;;;;15.93;10.73;;;;;;;0.33;73.68;98046.95;1601906;89;21262;-63
2021/01/14 07:55:53;;;;;;;16.37;12.40;;;;;;;0.33;73.68;98046.95;1599032;88;21953;-64
2021/01/14 07:58:23;;;;;;;14.93;10.88;;;;;;;0.40;73.47;98054.05;1590766;87;21156;-63
2021/01/14 08:01:06;;;;;;;16.85;10.63;;;;;;;0.44;73.18;98050.52;1599312;89;21184;-63
2021/01/14 08:03:39;;;;;;;15.40;11.20;;;;;;;0.47;73.01;98052.57;1601954;89;21244;-64
2021/01/14 08:06:34;;;;;;;15.88;10.30;;;;;;;0.44;72.71;98053.92;1599423;89;21218;-64
2021/01/14 08:09:10;;;;;;;18.87;12.23;;;;;;;0.40;72.83;98048.94;1601052;89;21168;-62
2021/01/14 08:11:47;;;;;;;18.32;11.35;;;;;;;0.41;72.89;98046.31;1601460;89;21167;-66
2021/01/14 08:14:22;;;;;;;15.30;11.73;;;;;;;0.42;72.75;98045.88;1599969;89;21703;-63
2021/01/14 08:16:55;;;;;;;12.68;10.23;;;;;;;0.41;72.74;98051.42;1610776;88;21406;-63
2021/01/14 08:19:33;;;;;;;15.50;10.82;;;;;;;0.40;72.65;98042.54;1631347;88;21165;-63
2021/01/14 08:22:10;;;;;;;18.45;9.90;;;;;;;0.36;72.62;98039.64;1624478;88;21643;-63
2021/01/14 08:24:42;;;;;;;15.10;11.60;;;;;;;0.34;72.92;98046.07;1603369;89;21625;-63
2021/01/14 08:27:26;;;;;;;17.92;12.10;;;;;;;0.32;72.78;98046.11;1602424;88;21195;-65
2021/01/14 08:30:14;;;;;;;19.02;12.43;;;;;;;0.27;73.00;98045.80;1602836;88;21614;-63
2021/01/14 08:32:47;;;;;;;18.45;13.20;;;;;;;0.22;73.10;98040.78;1604975;89;21199;-63
2021/01/14 08:35:29;;;;;;;16.77;11.15;;;;;;;0.16;73.28;98034.99;1604844;88;21148;-62
2021/01/14 08:38:00;;;;;;;16.50;10.85;;;;;;;0.19;73.57;98040.88;1602868;87;21103;-63
2021/01/14 08:40:33;;;;;;;18.95;12.05;;;;;;;0.27;73.35;98041.53;1604268;89;21100;-63
2021/01/14 08:43:19;;;;;;;17.85;12.63;;;;;;;0.34;73.17;98044.80;1604942;88;21396;-63
2021/01/14 08:45:54;;;;;;;20.25;12.82;;;;;;;0.40;73.33;98039.52;1604808;89;21139;-63
2021/01/14 08:48:29;;;;;;;21.90;13.08;;;;;;;0.46;73.26;98039.38;1604923;88;21266;-62
2021/01/14 08:51:03;;;;;;;21.93;13.62;;;;;;;0.57;73.21;98036.58;1604796;88;21107;-62
2021/01/14 08:53:40;;;;;;;18.10;13.03;;;;;;;0.69;73.03;98036.27;1603123;88;21096;-62
2021/01/14 08:56:22;;;;;;;15.85;11.05;;;;;;;0.77;72.85;98035.64;1602602;88;21652;-62
2021/01/14 08:58:51;;;;;;;15.78;10.95;;;;;;;0.79;72.23;98036.89;1601531;89;21520;-63
2021/01/14 09:01:25;;;;;;;14.85;10.80;;;;;;;0.77;72.17;98039.92;1601417;89;21647;-63
2021/01/14 09:03:54;;;;;;;13.25;10.45;;;;;;;0.72;72.07;98041.75;1603949;89;21226;-62
2021/01/14 09:06:30;;;;;;;18.67;13.53;;;;;;;0.66;72.02;98038.45;1604602;89;21215;-64
2021/01/14 09:08:59;;;;;;;20.45;13.75;;;;;;;0.66;72.04;98038.45;1604717;89;21233;-62
2021/01/14 09:11:27;;;;;;;17.75;12.75;;;;;;;0.68;72.27;98038.42;1604629;89;21124;-61
2021/01/14 09:14:11;;;;;;;19.80;12.13;;;;;;;0.69;72.23;98032.42;1604644;89;21204;-61
2021/01/14 09:16:40;;;;;;;12.33;10.00;;;;;;;0.69;71.88;98037.55;1604622;89;21513;-62
2021/01/14 09:19:14;;;;;;;14.80;10.70;;;;;;;0.65;71.95;98036.77;1604367;89;21111;-62
2021/01/14 09:21:45;;;;;;;13.65;10.32;;;;;;;0.62;72.02;98040.68;1603452;89;21235;-66
2021/01/14 09:24:14;;;;;;;16.97;11.12;;;;;;;0.57;71.61;98027.19;1602530;89;21195;-62
2021/01/14 09:26:42;;;;;;;16.52;11.53;;;;;;;0.53;71.85;98029.84;1601591;89;21159;-62
2021/01/14 09:29:11;;;;;;;18.90;10.45;;;;;;;0.58;71.98;98031.86;1602429;89;21604;-62
2021/01/14 09:31:40;;;;;;;14.83;9.65;;;;;;;0.65;71.54;98035.49;1604523;89;21231;-61
2021/01/14 09:34:08;;;;;;;15.28;10.72;;;;;;;0.69;71.20;98031.15;1602697;89;21410;-62
2021/01/14 09:36:36;;;;;;;15.35;10.30;;;;;;;0.65;71.25;98029.09;1602833;89;21183;-62
2021/01/14 09:39:07;;;;;;;12.90;9.25;;;;;;;0.67;71.36;98029.06;1602713;88;21200;-62
2021/01/14 09:41:39;;;;;;;14.70;10.35;;;;;;;0.69;71.25;98031.98;1601856;88;21210;-62
2021/01/14 09:44:09;;;;;;;12.87;9.60;;;;;;;0.75;71.17;98025.05;1602953;88;21113;-62
2021/01/14 09:46:45;;;;;;;12.37;8.85;;;;;;;0.84;71.16;98031.19;1604942;88;22321;-61
2021/01/14 09:49:18;;;;;;;12.13;8.93;;;;;;;0.92;70.76;98030.56;1604938;88;21575;-62
2021/01/14 09:51:46;;;;;;;;;;;;;;;0.97;70.34;98030.86;1607305;88;21187;-63
2021/01/14 09:54:14;;;;;;;12.82;8.98;;;;;;;1.01;70.26;98029.03;1604844;88;20232;-62
2021/01/14 09:56:44;;;;;;;14.87;9.63;;;;;;;1.01;69.86;98027.31;1604762;89;21118;-63
2021/01/14 09:59:41;;;;;;;15.23;11.00;;;;;;;1.03;69.75;98029.83;1616135;87;21655;-64
2021/01/14 10:02:17;;;;;;;16.15;11.63;;;;;;;1.12;69.98;98023.20;1551067;90;21199;-64
2021/01/14 10:05:00;;;;;;;20.55;13.53;;;;;;;1.20;69.72;98025.09;1594794;89;21187;-63
2021/01/14 10:07:28;;;;;;;16.20;11.15;;;;;;;1.25;69.62;98018.58;1604511;89;21175;-64
2021/01/14 10:09:57;;;;;;;17.35;11.15;;;;;;;1.25;69.29;98013.02;1583670;89;21082;-64
2021/01/14 10:12:26;;;;;;;15.75;10.95;;;;;;;1.23;69.32;98015.22;1602746;89;21405;-62
2021/01/14 10:15:13;;;;;;;16.17;11.10;;;;;;;1.20;69.51;98007.17;1601815;89;21166;-64
2021/01/14 10:17:41;;;;;;;18.10;12.55;;;;;;;1.20;69.76;98007.17;1602353;89;21171;-65
2021/01/14 10:20:14;;;;;;;14.33;11.43;;;;;;;1.23;69.63;98008.81;1602625;89;21137;-64
2021/01/14 10:22:51;;;;;;;14.05;10.72;;;;;;;1.20;69.16;98003.33;1600092;88;21230;-64
2021/01/14 10:25:21;;;;;;;12.73;9.28;;;;;;;1.13;69.14;98004.41;1600797;89;21292;-64
2021/01/14 10:28:10;;;;;;;14.68;10.68;;;;;;;1.10;69.11;98003.64;1602794;89;21131;-65
2021/01/14 10:30:42;;;;;;;13.58;10.53;;;;;;;1.06;69.28;98004.59;1603064;89;21095;-65
2021/01/14 10:33:10;;;;;;;14.30;11.05;;;;;;;1.04;69.44;97999.07;1602949;89;21095;-65
2021/01/14 10:35:38;;;;;;;14.28;10.80;;;;;;;1.03;69.37;97993.99;1602998;89;21219;-64
2021/01/14 10:38:13;;;;;;;17.23;11.88;;;;;;;1.02;69.44;98003.39;1605061;87;21230;-64
2021/01/14 10:40:47;;;;;;;15.88;11.73;;;;;;;1.01;69.70;97994.47;1605035;89;21115;-64
2021/01/14 10:43:29;;;;;;;15.90;11.90;;;;;;;1.04;69.75;97993.95;1602391;89;21175;-64
2021/01/14 10:45:57;;;;;;;17.32;13.53;;;;;;;1.08;70.05;97999.84;1603037;89;21179;-63
2021/01/14 10:48:38;;;;;;;18.02;12.55;;;;;;;1.12;70.07;97988.64;1603012;89;21179;-67
2021/01/14 10:51:07;;;;;;;16.35;12.40;;;;;;;1.14;70.10;97985.59;1603055;89;21295;-69
2021/01/14 10:53:40;;;;;;;17.92;13.28;;;;;;;1.22;69.87;97981.08;1618079;87;21171;-65
2021/01/14 10:58:59;;;;;;;16.45;11.45;;;;;;;1.35;69.32;97973.91;1888519;76;22451;-66
2021/01/14 11:01:28;;;;;;;16.23;11.95;;;;;;;1.32;69.31;97972.28;1775281;80;21074;-65
2021/01/14 11:04:07;;;;;;;16.35;11.38;;;;;;;1.37;69.11;97972.99;1746124;81;21394;-66
2021/01/14 11:06:36;;;;;;;14.95;11.45;;;;;;;1.45;69.08;97970.63;1775250;80;21592;-65
2021/01/14 11:09:11;;;;;;;14.40;10.35;;;;;;;1.52;68.34;97969.58;1773914;81;21476;-67
2021/01/14 11:11:36;;;;;;;16.82;11.90;;;;;;;1.53;68.17;97963.58;1769926;80;21206;-66
2021/01/14 11:14:04;;;;;;;15.25;11.15;;;;;;;1.54;68.21;97972.50;1773178;79;21188;-66
2021/01/14 11:16:33;;;;;;;15.58;10.55;;;;;;;1.60;67.88;97967.17;1743288;80;21404;-65
2021/01/14 11:19:03;;;;;;;17.82;12.15;;;;;;;1.63;67.28;97968.81;1775130;80;21090;-67
2021/01/14 11:21:34;;;;;;;16.42;11.60;;;;;;;1.70;67.32;97969.88;1775218;80;21090;-67
2021/01/14 11:24:04;;;;;;;17.40;9.63;;;;;;;1.74;66.79;97970.62;1747573;80;21188;-66
2021/01/14 11:26:32;;;;;;;13.75;10.40;;;;;;;1.75;66.76;97970.19;1775247;80;21105;-68
2021/01/14 11:29:01;;;;;;;12.03;9.13;;;;;;;1.75;66.31;97974.88;1775278;80;21390;-68
2021/01/14 11:31:29;;;;;;;12.60;9.90;;;;;;;1.75;66.02;97971.47;1775511;79;21219;-67
2021/01/14 11:33:57;;;;;;;15.45;11.85;;;;;;;1.73;66.07;97962.10;1778806;79;21205;-67
2021/01/14 11:36:26;;;;;;;16.57;11.38;;;;;;;1.73;66.06;97971.07;1780445;80;21151;-67
2021/01/14 11:38:54;;;;;;;16.65;12.00;;;;;;;1.77;66.35;97973.11;1796489;79;21419;-65
2021/01/14 11:41:25;;;;;;;14.28;10.98;;;;;;;1.88;66.36;97970.20;1796666;79;21442;-66
2021/01/14 11:43:52;;;;;;;14.78;10.63;;;;;;;1.98;65.76;97962.20;1810551;78;21153;-67
2021/01/14 11:46:24;;;;;;;13.62;11.95;;;;;;;2.01;65.68;97958.67;1813311;77;21439;-65
2021/01/14 11:48:53;;;;;;;11.60;9.48;;;;;;;2.01;65.31;97959.51;1813677;78;21186;-66
2021/01/14 11:51:21;;;;;;;15.32;10.98;;;;;;;2.00;64.86;97961.68;1837703;77;21178;-67
2021/01/14 11:53:50;;;;;;;14.18;10.25;;;;;;;1.99;64.48;97958.75;1840826;77;21224;-68
2021/01/14 11:56:18;;;;;;;15.83;10.40;;;;;;;1.99;64.22;97961.75;1824787;78;21205;-67
2021/01/14 11:58:49;;;;;;;14.90;10.88;;;;;;;1.97;64.53;97960.96;1828626;78;21180;-67
2021/01/14 12:01:26;;;;;;;13.30;10.03;;;;;;;1.99;64.23;97963.03;1831301;78;21515;-66
2021/01/14 12:03:59;;;;;;;14.75;10.70;;;;;;;1.98;64.19;97961.36;1831241;78;21153;-67
2021/01/14 12:06:28;;;;;;;15.75;11.20;;;;;;;1.94;63.81;97964.89;1831171;78;21142;-67
2021/01/14 12:08:57;;;;;;;13.75;10.28;;;;;;;1.93;63.95;97960.66;1821060;77;21187;-66
2021/01/14 12:11:27;;;;;;;13.95;10.40;;;;;;;1.95;64.14;97960.16;1821302;78;21187;-66
2021/01/14 12:13:54;;;;;;;12.53;8.83;;;;;;;1.96;63.95;97965.25;1824336;78;21155;-66
2021/01/14 12:16:22;;;;;;;13.20;9.48;;;;;;;1.94;64.02;97961.89;1824382;78;21468;-66
2021/01/14 12:18:50;;;;;;;13.28;9.68;;;;;;;1.91;64.11;97965.83;1821788;78;21197;-67
2021/01/14 12:21:18;;;;;;;12.70;9.98;;;;;;;1.83;64.37;97967.77;1809813;77;21190;-66
2021/01/14 12:23:47;;;;;;;15.45;9.53;;;;;;;1.75;64.71;97968.47;1797699;79;21098;-67
2021/01/14 12:26:15;;;;;;;12.90;10.10;;;;;;;1.66;65.00;97972.56;1798079;79;21126;-67
2021/01/14 12:28:43;;;;;;;16.87;11.75;;;;;;;1.58;65.28;97969.41;1797474;79;21182;-66
2021/01/14 12:31:11;;;;;;;15.03;9.68;;;;;;;1.53;65.64;97977.67;1813683;77;22659;-67
2021/01/14 12:33:39;;;;;;;18.98;12.65;;;;;;;1.50;65.68;97971.34;1812887;79;21621;-66
2021/01/14 12:36:07;;;;;;;21.75;13.75;;;;;;;1.40;66.00;97963.08;1815595;79;21209;-64
2021/01/14 12:38:36;;;;;;;16.32;10.50;;;;;;;1.33;66.54;97967.55;1816075;79;21466;-67
2021/01/14 12:41:09;;;;;;;15.95;9.95;;;;;;;1.31;66.70;97972.31;1844897;77;21046;-63
2021/01/14 12:43:36;;;;;;;19.05;13.30;;;;;;;1.28;66.52;97972.40;1852343;77;22108;-71
2021/01/14 12:46:05;;;;;;;21.95;14.45;;;;;;;1.24;66.73;97978.05;1850513;77;21122;-67
2021/01/14 12:48:35;;;;;;;12.33;10.53;;;;;;;1.17;66.84;97976.55;1849242;76;21147;-64
2021/01/14 12:51:05;;;;;;;14.25;10.70;;;;;;;1.08;67.17;97973.39;1849322;77;21071;-68
2021/01/14 12:53:35;;;;;;;14.83;11.43;;;;;;;1.01;67.94;97981.67;1849081;77;21123;-64
2021/01/14 12:56:03;;;;;;;13.78;10.78;;;;;;;0.92;68.35;97987.05;1849368;77;21364;-67
2021/01/14 12:58:33;;;;;;;17.15;12.15;;;;;;;0.87;68.77;97987.61;1851052;77;21130;-65
2021/01/14 13:01:01;;;;;;;14.85;10.75;;;;;;;0.79;69.12;97985.70;1852065;76;21169;-65
2021/01/14 13:03:29;;;;;;;15.15;11.22;;;;;;;0.72;69.50;97990.13;1823340;76;21161;-68
2021/01/14 13:05:58;;;;;;;16.17;11.48;;;;;;;0.67;69.83;97989.41;1849527;77;21141;-68
2021/01/14 13:08:26;;;;;;;14.73;11.55;;;;;;;0.67;70.31;97990.68;1817114;78;21553;-65
2021/01/14 13:10:55;;;;;;;15.10;11.63;;;;;;;0.68;70.53;97995.77;1818966;78;21609;-65
2021/01/14 13:13:24;;;;;;;16.20;10.78;;;;;;;0.67;70.67;97998.36;1820808;78;21151;-67
2021/01/14 13:15:52;;;;;;;15.45;12.10;;;;;;;0.67;70.56;97997.08;1820828;78;21178;-68
2021/01/14 13:18:20;;;;;;;13.65;11.30;;;;;;;0.70;70.82;97998.28;1820951;78;21460;-66
2021/01/14 13:20:49;;;;;;;15.03;11.25;;;;;;;0.72;70.74;97996.97;1820980;77;22092;-66
2021/01/14 13:23:17;;;;;;;13.35;10.58;;;;;;;0.69;70.55;98001.72;1821011;78;21131;-63
2021/01/14 13:25:46;;;;;;;15.05;9.90;;;;;;;0.64;70.51;98002.27;1821260;77;21094;-63
2021/01/14 13:28:13;;;;;;;12.85;9.50;;;;;;;0.58;70.48;98000.72;1842918;77;22320;-66
2021/01/14 13:30:42;;;;;;;13.83;10.45;;;;;;;0.50;70.43;98000.06;1846704;77;21027;-64
2021/01/14 13:33:13;;;;;;;16.70;11.60;;;;;;;0.42;70.73;98001.95;1849345;77;21349;-62
2021/01/14 13:35:41;;;;;;;14.30;10.90;;;;;;;0.37;70.98;97997.41;1849044;77;21067;-62
2021/01/14 13:38:09;;;;;;;15.88;12.53;;;;;;;0.36;70.94;98000.84;1848895;77;21178;-64
2021/01/14 13:40:37;;;;;;;16.00;12.73;;;;;;;0.35;71.19;98008.12;1844377;77;22143;-66
2021/01/14 13:43:05;;;;;;;19.07;13.13;;;;;;;0.34;71.48;98012.39;1846457;77;21138;-63
2021/01/14 13:45:33;;;;;;;19.10;14.07;;;;;;;0.35;71.57;98009.39;1849103;77;21247;-63
2021/01/14 13:48:02;;;;;;;16.82;12.93;;;;;;;0.31;71.62;98009.06;1840173;77;21186;-64
2021/01/14 13:50:30;;;;;;;17.70;13.68;;;;;;;0.29;71.86;98014.20;1827020;77;21143;-64
2021/01/14 13:52:58;;;;;;;20.15;12.25;;;;;;;0.28;71.98;98015.08;1845555;77;21189;-63
2021/01/14 13:55:26;;;;;;;17.30;12.55;;;;;;;0.27;72.16;98008.29;1837166;77;21134;-63
2021/01/14 13:57:54;;;;;;;17.70;13.38;;;;;;;0.25;72.26;98015.15;1820853;77;21144;-62
2021/01/14 14:00:23;;;;;;;17.55;13.38;;;;;;;0.25;72.31;98020.27;1818898;78;21069;-64
2021/01/14 14:02:51;;;;;;;19.80;14.75;;;;;;;0.27;72.40;98021.51;1819037;78;21096;-63
2021/01/14 14:05:18;;;;;;;18.42;13.13;;;;;;;0.26;72.48;98025.78;1818910;77;21096;-63
2021/01/14 14:07:50;;;;;;;19.27;13.55;;;;;;;0.23;72.58;98020.73;1844925;77;21111;-63
2021/01/14 14:10:19;;;;;;;16.93;12.68;;;;;;;0.17;72.77;98028.57;1852281;77;21318;-63
2021/01/14 14:12:47;;;;;;;21.97;13.98;;;;;;;0.16;72.97;98026.05;1833574;77;21519;-62
2021/01/14 14:15:16;;;;;;;16.80;13.20;;;;;;;0.14;72.97;98040.14;1838109;77;21749;-64
2021/01/14 14:17:43;;;;;;;23.27;15.40;;;;;;;0.10;73.15;98025.73;1830986;77;22036;-63
2021/01/14 14:20:13;;;;;;;20.52;13.60;;;;;;;0.10;73.22;98033.84;1820153;77;21162;-63
2021/01/14 14:22:41;;;;;;;21.73;14.23;;;;;;;0.07;73.29;98028.80;1821346;77;21365;-64
2021/01/14 14:25:09;;;;;;;17.57;12.60;;;;;;;0.07;73.44;98037.74;1815566;78;21207;-62
2021/01/14 14:27:55;;;;;;;18.12;13.93;;;;;;;0.05;73.42;98036.50;1828532;77;21084;-63
2021/01/14 14:30:25;;;;;;;21.23;14.78;;;;;;;0.06;73.54;98036.90;1845802;77;21131;-63
2021/01/14 14:32:53;;;;;;;20.37;14.45;;;;;;;0.09;73.69;98031.72;1850903;77;21185;-63
2021/01/14 14:35:21;;;;;;;26.42;17.37;;;;;;;0.11;73.76;98031.69;1851477;77;21364;-64
2021/01/14 14:37:49;;;;;;;19.92;14.68;;;;;;;0.12;73.90;98033.38;1834412;77;21073;-65
2021/01/14 14:40:17;;;;;;;18.77;14.70;;;;;;;0.16;74.00;98041.39;1830349;77;21178;-64
2021/01/14 14:42:45;;;;;;;21.48;15.38;;;;;;;0.19;73.90;98037.48;1850421;77;21250;-63
2021/01/14 14:45:14;;;;;;;22.85;15.58;;;;;;;0.20;74.06;98040.45;1852165;77;21186;-63
2021/01/14 14:47:45;;;;;;;23.65;16.23;;;;;;;0.26;74.25;98042.84;1851879;77;21363;-63
2021/01/14 14:50:13;;;;;;;24.30;16.87;;;;;;;0.31;74.35;98041.87;1852503;77;21063;-63
2021/01/14 14:52:41;;;;;;;21.02;16.45;;;;;;;0.35;74.49;98043.92;1852599;77;21437;-63
2021/01/14 14:55:10;;;;;;;20.75;15.75;;;;;;;0.38;74.69;98044.29;1852362;77;21484;-64
2021/01/14 14:57:40;;;;;;;26.30;17.35;;;;;;;0.43;74.92;98042.44;1852171;77;21059;-65
2021/01/14 15:00:10;;;;;;;24.32;17.07;;;;;;;0.44;74.86;98046.25;1841655;77;21204;-64
2021/01/14 15:02:38;;;;;;;16.00;13.35;;;;;;;0.39;75.11;98044.69;1818972;78;21591;-63
2021/01/14 15:05:08;;;;;;;17.62;13.58;;;;;;;0.36;75.36;98046.88;1824172;77;21500;-63
2021/01/14 15:07:35;;;;;;;19.40;14.10;;;;;;;0.30;75.40;98045.30;1793374;78;21198;-63
2021/01/14 15:10:05;;;;;;;21.97;14.45;;;;;;;0.22;75.62;98050.17;1818098;78;21403;-62
2021/01/14 15:12:33;;;;;;;23.38;15.03;;;;;;;0.10;76.00;98053.02;1819138;78;21366;-64
2021/01/14 15:15:01;;;;;;;21.05;14.73;;;;;;;0.06;76.44;98050.96;1819148;78;21071;-62
2021/01/14 15:17:29;;;;;;;18.73;13.68;;;;;;;0.08;76.65;98045.81;1819142;78;21055;-63
2021/01/14 15:19:57;;;;;;;19.57;13.18;;;;;;;0.07;77.03;98053.92;1819161;78;21162;-64
2021/01/14 15:22:24;;;;;;;17.57;13.62;;;;;;;0.14;77.32;98054.64;1819198;78;21131;-64
2021/01/14 15:24:52;;;;;;;19.20;13.98;;;;;;;0.22;77.39;98052.30;1819117;78;21201;-63
2021/01/14 15:27:20;;;;;;;17.02;13.62;;;;;;;0.28;77.29;98059.83;1819207;78;21059;-62
2021/01/14 15:29:48;;;;;;;17.62;13.40;;;;;;;0.27;77.49;98055.59;1821686;77;21100;-63
2021/01/14 15:32:15;;;;;;;18.17;14.40;;;;;;;0.25;77.51;98053.94;1818396;77;21912;-63
2021/01/14 15:34:43;;;;;;;22.15;15.68;;;;;;;0.18;77.85;98058.81;1813129;79;21179;-63
2021/01/14 15:37:11;;;;;;;21.05;16.37;;;;;;;0.21;78.09;98059.99;1851858;77;21193;-62
2021/01/14 15:39:39;;;;;;;28.90;18.95;;;;;;;0.25;78.17;98056.50;1852362;77;21147;-62
2021/01/14 15:42:12;;;;;;;24.37;17.07;;;;;;;0.29;78.10;98054.28;1852508;77;21528;-61
2021/01/14 15:44:39;;;;;;;24.15;17.45;;;;;;;0.27;77.99;98061.98;1852893;77;21563;-64
2021/01/14 15:47:07;;;;;;;26.60;17.67;;;;;;;0.28;78.07;98057.71;1852745;77;21681;-61
2021/01/14 15:49:35;;;;;;;27.75;18.05;;;;;;;0.30;77.97;98061.08;1852637;77;21193;-62
2021/01/14 15:52:04;;;;;;;26.75;17.65;;;;;;;0.28;78.01;98067.94;1852578;77;21063;-63
2021/01/14 15:54:31;;;;;;;23.38;17.17;;;;;;;0.27;77.85;98063.70;1852658;77;21074;-65
2021/01/14 15:56:59;;;;;;;18.48;14.00;;;;;;;0.24;77.97;98063.33;1852647;76;21038;-66
2021/01/14 15:59:38;;;;;;;23.10;15.70;;;;;;;0.23;77.75;98060.37;1852619;77;21434;-64
2021/01/14 16:02:11;;;;;;;21.07;15.10;;;;;;;0.19;77.92;98069.01;1852735;77;21350;-65
2021/01/14 16:04:44;;;;;;;;;;;;;;;0.17;78.04;98072.03;1855004;77;21138;-68
2021/01/14 16:07:12;;;;;;;29.52;19.37;;;;;;;0.15;77.86;98066.55;1852554;77;20223;-61
2021/01/14 16:09:42;;;;;;;23.35;15.78;;;;;;;0.07;78.22;98064.58;1852686;77;21038;-66
2021/01/14 16:12:19;;;;;;;24.32;16.48;;;;;;;0.13;78.45;98070.41;1873503;76;22630;-62
2021/01/14 16:14:47;;;;;;;22.62;16.00;;;;;;;0.12;78.44;98067.45;1841582;78;21061;-66
2021/01/14 16:17:15;;;;;;;21.42;14.50;;;;;;;0.14;78.30;98065.70;1839418;78;22377;-64
2021/01/14 16:19:44;;;;;;;21.35;14.53;;;;;;;0.15;78.47;98068.66;1757785;81;21626;-65
2021/01/14 16:22:13;;;;;;;25.23;15.65;;;;;;;0.16;78.30;98066.95;1780393;80;21595;-61
2021/01/14 16:24:41;;;;;;;21.68;15.20;;;;;;;0.12;78.22;98067.45;1757825;80;21154;-61
2021/01/14 16:27:09;;;;;;;22.87;15.60;;;;;;;0.11;77.92;98064.92;1780415;80;21079;-61
2021/01/14 16:29:37;;;;;;;23.22;16.12;;;;;;;0.04;77.92;98069.32;1759035;80;21367;-60
2021/01/14 16:32:05;;;;;;;21.42;13.90;;;;;;;-0.01;77.95;98069.88;1790598;79;21134;-64
2021/01/14 16:34:33;;;;;;;20.72;13.80;;;;;;;-0.04;77.85;98068.23;1790677;80;21143;-62
2021/01/14 16:37:04;;;;;;;18.60;13.10;;;;;;;-0.06;77.80;98068.70;1790681;80;21060;-62
2021/01/14 16:39:33;;;;;;;18.40;12.93;;;;;;;-0.12;77.51;98070.09;1790743;78;21146;-64
2021/01/14 16:42:07;;;;;;;13.68;10.75;;;;;;;-0.18;77.57;98068.94;1790679;79;21355;-62
2021/01/14 16:44:36;;;;;;;13.55;11.12;;;;;;;-0.25;77.39;98071.23;1790735;80;21167;-63
2021/01/14 16:47:06;;;;;;;15.65;11.83;;;;;;;-0.33;77.40;98072.25;1790681;78;21111;-63
2021/01/14 16:49:34;;;;;;;16.73;11.35;;;;;;;-0.38;77.52;98072.33;1771819;80;21603;-59
2021/01/14 16:52:05;;;;;;;14.35;10.25;;;;;;;-0.40;77.64;98072.36;1751097;82;21551;-63
2021/01/14 16:54:33;;;;;;;12.00;8.58;;;;;;;-0.41;77.55;98069.44;1751062;80;21359;-63
2021/01/14 16:57:01;;;;;;;14.25;9.08;;;;;;;-0.44;77.49;98066.94;1751084;82;21098;-63